Time;durP1;ratioP1;P1;durP2;ratioP2;P2;SDS_P1;SDS_P2;PMS_P1;PMS_P2;Temp;Humidity;BMP_temperature;BMP_pressure;BME280_temperature;BME280_humidity;BME280_pressure;Samples;Min_cycle;Max_cycle;Signal;HPM_P1;HPM_P2
2024/02/19 00:01:57;;;;;;;22.25;2.00;;;8.90;99.90;;;;;;5066292;28;20036;-76
2024/02/19 00:04:22;;;;;;;21.15;4.95;;;8.80;99.90;;;;;;5041718;28;20048;-75
2024/02/19 00:06:51;;;;;;;25.83;2.13;;;8.80;99.90;;;;;;5044073;28;20422;-76
2024/02/19 00:09:19;;;;;;;24.75;3.20;;;8.80;99.90;;;;;;5060290;28;20032;-75
2024/02/19 00:11:45;;;;;;;20.42;2.35;;;8.80;99.90;;;;;;5043257;28;20044;-75
2024/02/19 00:14:11;;;;;;;25.58;3.10;;;8.90;99.90;;;;;;5034818;28;20518;-76
2024/02/19 00:16:37;;;;;;;23.70;2.95;;;8.90;99.90;;;;;;5058810;28;20033;-77
2024/02/19 00:19:05;;;;;;;27.85;3.92;;;8.90;99.90;;;;;;5055672;28;20049;-75
2024/02/19 00:21:31;;;;;;;19.23;2.88;;;8.90;99.90;;;;;;5046867;28;20051;-77
2024/02/19 00:23:57;;;;;;;27.58;2.65;;;8.80;99.90;;;;;;5048380;28;20071;-75
2024/02/19 00:26:22;;;;;;;12.20;2.75;;;8.90;99.90;;;;;;5041535;28;20505;-76
2024/02/19 00:28:48;;;;;;;32.90;3.72;;;8.80;99.90;;;;;;5043804;28;20044;-74
2024/02/19 00:31:13;;;;;;;13.23;2.55;;;8.80;99.90;;;;;;5043224;28;20037;-77
2024/02/19 00:33:39;;;;;;;19.52;2.35;;;8.80;99.90;;;;;;5040077;28;20434;-76
2024/02/19 00:36:05;;;;;;;17.10;2.17;;;8.80;99.90;;;;;;5040701;28;20033;-75
2024/02/19 00:38:30;;;;;;;20.48;3.20;;;8.80;99.90;;;;;;5041381;28;20112;-75
2024/02/19 00:40:56;;;;;;;17.85;3.13;;;8.80;99.90;;;;;;5043461;28;20079;-77
2024/02/19 00:43:22;;;;;;;15.73;2.55;;;8.80;99.90;;;;;;5037756;28;20053;-76
2024/02/19 00:45:47;;;;;;;12.75;2.55;;;8.80;99.90;;;;;;5043040;28;20033;-76
2024/02/19 00:48:13;;;;;;;17.63;3.40;;;8.80;99.90;;;;;;5036937;28;20033;-75
2024/02/19 00:50:38;;;;;;;16.27;2.45;;;8.80;99.90;;;;;;5046780;28;20052;-75
2024/02/19 00:53:04;;;;;;;18.30;2.80;;;8.80;99.90;;;;;;5044303;28;20060;-74
2024/02/19 00:55:30;;;;;;;15.00;1.98;;;8.80;99.90;;;;;;5063007;28;20143;-75
2024/02/19 00:57:55;;;;;;;10.32;2.00;;;8.80;99.90;;;;;;5039363;28;20035;-76
2024/02/19 01:00:22;;;;;;;27.05;3.28;;;8.80;99.90;;;;;;5049435;28;20037;-72
2024/02/19 01:02:48;;;;;;;31.45;3.33;;;8.80;99.90;;;;;;5067821;28;20029;-76
2024/02/19 01:05:14;;;;;;;13.25;2.22;;;8.80;99.90;;;;;;5068413;28;20485;-75
2024/02/19 01:07:39;;;;;;;28.13;3.70;;;8.80;99.90;;;;;;5067241;28;20033;-75
2024/02/19 01:10:05;;;;;;;16.95;2.00;;;8.80;99.90;;;;;;5067671;28;20040;-76
2024/02/19 01:12:31;;;;;;;14.90;2.42;;;8.80;99.90;;;;;;5067614;28;20667;-77
2024/02/19 01:14:56;;;;;;;20.60;2.67;;;8.90;99.90;;;;;;5067632;28;20199;-77
2024/02/19 01:17:22;;;;;;;23.80;3.58;;;8.80;99.90;;;;;;5068199;28;20040;-75
2024/02/19 01:19:47;;;;;;;23.75;1.92;;;8.90;99.90;;;;;;5049951;28;20068;-75
2024/02/19 01:22:13;;;;;;;20.98;3.92;;;8.90;99.90;;;;;;5067475;28;20147;-75
2024/02/19 01:24:39;;;;;;;22.48;3.45;;;8.80;99.90;;;;;;5066912;28;20036;-75
2024/02/19 01:27:06;;;;;;;18.13;2.45;;;8.90;99.90;;;;;;5066138;28;20489;-75
2024/02/19 01:29:32;;;;;;;19.42;2.20;;;8.80;99.90;;;;;;5047242;28;20040;-75
2024/02/19 01:31:58;;;;;;;14.82;2.38;;;8.80;99.90;;;;;;5048947;28;20102;-75
2024/02/19 01:34:23;;;;;;;19.35;2.60;;;8.80;99.90;;;;;;5048773;28;20547;-77
2024/02/19 01:36:49;;;;;;;13.45;2.65;;;8.80;99.90;;;;;;5048120;28;20048;-77
2024/02/19 01:39:17;;;;;;;12.25;2.20;;;8.90;99.90;;;;;;5044949;28;20048;-74
2024/02/19 01:41:43;;;;;;;23.50;2.13;;;8.80;99.90;;;;;;5065033;28;20052;-75
2024/02/19 01:44:09;;;;;;;15.95;2.88;;;8.80;99.90;;;;;;5065651;28;20028;-74
2024/02/19 01:46:39;;;;;;;21.02;3.13;;;8.80;99.90;;;;;;5065538;28;20037;-75
2024/02/19 01:49:05;;;;;;;12.38;2.05;;;8.80;99.90;;;;;;5065042;28;20760;-74
2024/02/19 01:51:32;;;;;;;12.50;2.15;;;8.80;99.90;;;;;;5065270;28;20040;-76
2024/02/19 01:53:58;;;;;;;15.68;2.08;;;8.80;99.90;;;;;;5065001;28;20590;-75
2024/02/19 01:56:24;;;;;;;25.48;2.58;;;8.80;99.90;;;;;;5063388;28;20139;-76
2024/02/19 01:58:50;;;;;;;17.38;3.40;;;8.80;99.90;;;;;;5066569;28;20402;-76
2024/02/19 02:01:16;;;;;;;17.60;2.70;;;8.80;99.90;;;;;;5048746;28;20044;-78
2024/02/19 02:03:43;;;;;;;19.40;2.50;;;8.80;99.90;;;;;;5065511;28;20034;-78
2024/02/19 02:06:09;;;;;;;22.80;4.18;;;8.80;99.90;;;;;;5066570;28;20036;-75
2024/02/19 02:08:39;;;;;;;18.85;2.22;;;8.80;99.90;;;;;;5066138;28;20024;-75
2024/02/19 02:11:05;;;;;;;21.23;3.13;;;8.80;99.90;;;;;;5059775;28;20037;-77
2024/02/19 02:13:33;;;;;;;16.95;1.85;;;8.80;99.90;;;;;;5067422;28;20029;-76
2024/02/19 02:16:02;;;;;;;19.45;3.53;;;8.80;99.90;;;;;;5064388;28;20025;-77
2024/02/19 02:18:27;;;;;;;16.98;2.40;;;8.70;99.90;;;;;;5066870;28;20426;-75
2024/02/19 02:20:53;;;;;;;16.23;2.53;;;8.80;99.90;;;;;;5048448;28;20032;-75
2024/02/19 02:23:20;;;;;;;15.43;2.90;;;8.80;99.90;;;;;;5064480;28;20084;-76
2024/02/19 02:25:45;;;;;;;27.48;3.90;;;8.80;99.90;;;;;;5063047;28;20115;-75
2024/02/19 02:28:11;;;;;;;19.77;2.10;;;8.80;99.90;;;;;;5055260;28;20174;-75
2024/02/19 02:30:36;;;;;;;19.20;2.97;;;8.80;99.90;;;;;;5044607;28;20039;-77
2024/02/19 02:33:02;;;;;;;20.80;2.20;;;8.80;99.90;;;;;;5066685;28;20378;-76
2024/02/19 02:35:28;;;;;;;15.70;2.65;;;8.70;99.90;;;;;;5065245;28;20037;-76
2024/02/19 02:37:54;;;;;;;22.88;2.67;;;8.80;99.90;;;;;;5048412;28;20021;-76
2024/02/19 02:40:19;;;;;;;25.88;3.40;;;8.80;99.90;;;;;;5048645;28;20535;-76
2024/02/19 02:42:45;;;;;;;15.85;2.38;;;8.80;99.90;;;;;;5064748;28;20146;-75
2024/02/19 02:45:11;;;;;;;24.02;3.20;;;8.70;99.90;;;;;;5059234;28;20393;-75
2024/02/19 02:47:36;;;;;;;16.13;2.45;;;8.80;99.90;;;;;;5041272;28;20043;-76
2024/02/19 02:50:02;;;;;;;21.73;2.42;;;8.70;99.90;;;;;;5038362;28;20502;-75
2024/02/19 02:52:27;;;;;;;12.68;2.10;;;8.70;99.90;;;;;;5063108;28;20549;-75
2024/02/19 02:54:53;;;;;;;20.05;2.58;;;8.70;99.90;;;;;;5048496;28;20123;-75
2024/02/19 02:57:19;;;;;;;27.42;3.08;;;8.70;99.90;;;;;;5057753;28;20130;-75
2024/02/19 02:59:44;;;;;;;22.13;2.22;;;8.70;99.90;;;;;;5064575;28;20080;-74
2024/02/19 03:02:10;;;;;;;36.63;3.47;;;8.70;99.90;;;;;;5064967;28;20044;-74
2024/02/19 03:04:35;;;;;;;14.95;2.45;;;8.70;99.90;;;;;;5065047;28;20634;-74
2024/02/19 03:07:01;;;;;;;23.92;2.20;;;8.70;99.90;;;;;;5045177;28;20097;-75
2024/02/19 03:09:26;;;;;;;16.98;2.65;;;8.70;99.90;;;;;;5064086;28;20029;-74
2024/02/19 03:11:52;;;;;;;18.15;2.17;;;8.70;99.90;;;;;;5048262;28;20037;-75
2024/02/19 03:14:17;;;;;;;14.27;1.98;;;8.70;99.90;;;;;;5066846;28;20090;-75
2024/02/19 03:16:43;;;;;;;18.92;2.03;;;8.70;99.90;;;;;;5042330;28;20086;-75
2024/02/19 03:19:09;;;;;;;11.07;2.35;;;8.70;99.90;;;;;;5044019;28;20394;-74
2024/02/19 03:21:36;;;;;;;12.30;2.00;;;8.70;99.90;;;;;;5064075;28;20113;-75
2024/02/19 03:24:02;;;;;;;17.83;2.85;;;8.70;99.90;;;;;;5067002;28;20486;-75
2024/02/19 03:26:28;;;;;;;19.15;3.58;;;8.70;99.90;;;;;;5069792;28;20094;-76
2024/02/19 03:28:53;;;;;;;17.63;1.90;;;8.80;99.90;;;;;;5068709;28;20653;-76
2024/02/19 03:31:19;;;;;;;13.80;2.63;;;8.80;99.90;;;;;;5065692;28;20040;-74
2024/02/19 03:33:46;;;;;;;11.57;1.95;;;8.70;99.90;;;;;;5041996;28;20025;-76
2024/02/19 03:36:11;;;;;;;17.25;2.58;;;8.70;99.90;;;;;;5038707;28;20702;-76
2024/02/19 03:38:37;;;;;;;15.88;2.25;;;8.70;99.90;;;;;;5040578;28;20111;-76
2024/02/19 03:41:10;;;;;;;12.43;2.22;;;8.70;99.90;;;;;;5063234;28;20533;-76
2024/02/19 03:43:36;;;;;;;19.83;2.45;;;8.80;99.90;;;;;;5044543;28;20029;-77
2024/02/19 03:46:04;;;;;;;13.57;2.70;;;8.70;99.90;;;;;;5045812;28;20536;-76
2024/02/19 03:48:30;;;;;;;11.60;2.08;;;8.70;99.90;;;;;;5041570;28;20091;-76
2024/02/19 03:50:55;;;;;;;23.13;3.38;;;8.70;99.90;;;;;;5037058;28;20483;-76
2024/02/19 03:53:21;;;;;;;11.10;1.90;;;8.70;99.90;;;;;;5038300;28;20041;-75
2024/02/19 03:55:46;;;;;;;16.15;2.58;;;8.70;99.90;;;;;;5024932;28;20040;-77
2024/02/19 03:58:12;;;;;;;17.70;2.25;;;8.70;99.90;;;;;;5039074;28;20032;-76
2024/02/19 04:00:37;;;;;;;18.42;2.70;;;8.70;99.90;;;;;;5039161;28;20037;-74
2024/02/19 04:03:03;;;;;;;17.55;2.03;;;8.70;99.90;;;;;;5025571;28;20049;-78
2024/02/19 04:05:28;;;;;;;16.48;2.58;;;8.70;99.90;;;;;;5040886;28;20072;-76
2024/02/19 04:07:54;;;;;;;19.85;2.25;;;8.70;99.90;;;;;;5043441;28;20167;-75
2024/02/19 04:10:20;;;;;;;14.43;1.75;;;8.70;99.90;;;;;;5028050;28;20036;-75
2024/02/19 04:12:45;;;;;;;24.40;3.10;;;8.70;99.90;;;;;;5026530;28;20037;-75
2024/02/19 04:15:11;;;;;;;19.13;2.50;;;8.70;99.90;;;;;;5046315;28;20085;-75
2024/02/19 04:17:36;;;;;;;26.88;3.33;;;8.70;99.90;;;;;;5040291;28;20090;-75
2024/02/19 04:20:04;;;;;;;13.90;2.30;;;8.70;99.90;;;;;;5025091;28;20040;-76
2024/02/19 04:22:29;;;;;;;12.35;1.58;;;8.70;99.90;;;;;;5044721;28;20040;-75
2024/02/19 04:24:55;;;;;;;16.15;2.47;;;8.70;99.90;;;;;;5026532;28;20401;-76
2024/02/19 04:27:20;;;;;;;15.65;2.38;;;8.70;99.90;;;;;;5044066;28;20504;-76
2024/02/19 04:29:46;;;;;;;14.73;1.88;;;8.70;99.90;;;;;;5024296;28;20044;-76
2024/02/19 04:32:12;;;;;;;16.40;1.92;;;8.70;99.90;;;;;;5045931;28;20037;-75
2024/02/19 04:34:37;;;;;;;17.42;1.38;;;8.70;99.90;;;;;;5028612;28;20027;-75
2024/02/19 04:37:03;;;;;;;13.05;2.33;;;8.70;99.90;;;;;;5049642;28;20132;-77
2024/02/19 04:39:29;;;;;;;15.73;1.63;;;8.70;99.90;;;;;;5046459;28;20033;-77
2024/02/19 04:41:54;;;;;;;15.43;1.90;;;8.70;99.90;;;;;;5056280;28;20052;-76
2024/02/19 04:44:20;;;;;;;16.90;1.70;;;8.70;99.90;;;;;;5044414;28;20067;-76
2024/02/19 04:46:45;;;;;;;14.80;2.13;;;8.70;99.90;;;;;;5045175;28;20088;-76
2024/02/19 04:49:11;;;;;;;14.43;1.55;;;8.70;99.90;;;;;;5027289;28;20052;-76
2024/02/19 04:51:36;;;;;;;13.35;1.40;;;8.70;99.90;;;;;;5037862;28;20517;-75
2024/02/19 04:54:03;;;;;;;10.70;1.50;;;8.70;99.90;;;;;;5042487;28;20045;-75
2024/02/19 04:56:28;;;;;;;13.00;1.60;;;8.70;99.90;;;;;;5046872;28;20509;-76
2024/02/19 04:58:55;;;;;;;16.33;1.10;;;8.70;99.90;;;;;;5028067;28;20482;-75
2024/02/19 05:01:20;;;;;;;7.68;0.98;;;8.70;99.90;;;;;;5025449;28;20102;-77
2024/02/19 05:03:46;;;;;;;17.38;2.50;;;8.70;99.90;;;;;;5023445;28;20033;-74
2024/02/19 05:06:12;;;;;;;12.13;1.30;;;8.70;99.90;;;;;;5047843;28;20087;-75
2024/02/19 05:08:37;;;;;;;9.25;0.93;;;8.70;99.90;;;;;;5027709;28;20034;-77
2024/02/19 05:11:04;;;;;;;7.18;2.10;;;8.70;99.90;;;;;;5030323;28;20037;-74
2024/02/19 05:13:36;;;;;;;9.05;1.73;;;8.70;99.90;;;;;;5049089;28;20052;-75
2024/02/19 05:16:02;;;;;;;16.08;1.48;;;8.70;99.90;;;;;;5045877;28;20033;-75
2024/02/19 05:18:27;;;;;;;11.13;1.40;;;8.80;99.90;;;;;;5042386;28;20044;-75
2024/02/19 05:20:53;;;;;;;11.38;1.67;;;8.80;99.90;;;;;;5049381;28;20048;-75
2024/02/19 05:23:18;;;;;;;12.20;1.40;;;8.80;99.90;;;;;;5036022;28;20040;-75
2024/02/19 05:25:44;;;;;;;8.93;1.17;;;8.80;99.90;;;;;;5053930;28;20068;-74
2024/02/19 05:28:09;;;;;;;21.85;3.28;;;8.80;99.90;;;;;;5031443;28;20041;-76
2024/02/19 05:30:36;;;;;;;9.25;1.80;;;8.80;99.90;;;;;;5043121;28;20037;-79
2024/02/19 05:33:01;;;;;;;12.88;2.08;;;8.80;99.90;;;;;;5047468;28;20111;-75
2024/02/19 05:35:27;;;;;;;10.93;1.80;;;8.80;99.90;;;;;;5047448;28;20498;-76
2024/02/19 05:37:53;;;;;;;17.10;2.72;;;8.80;99.90;;;;;;5048221;28;20114;-76
2024/02/19 05:40:18;;;;;;;9.77;1.42;;;8.80;99.90;;;;;;5039052;28;20038;-74
2024/02/19 05:42:44;;;;;;;10.18;1.20;;;8.80;99.90;;;;;;5047029;28;20623;-75
2024/02/19 05:45:10;;;;;;;12.20;1.35;;;8.80;99.90;;;;;;5047560;28;20041;-75
2024/02/19 05:47:35;;;;;;;12.70;1.67;;;8.80;99.90;;;;;;5047731;28;20029;-74
2024/02/19 05:50:01;;;;;;;8.00;1.45;;;8.80;99.90;;;;;;5047592;28;20544;-76
2024/02/19 05:52:27;;;;;;;9.77;1.55;;;8.90;99.90;;;;;;5036556;28;20033;-74
2024/02/19 05:54:53;;;;;;;12.95;2.05;;;8.90;99.90;;;;;;5040807;28;23021;-73
2024/02/19 05:57:18;;;;;;;7.40;1.40;;;8.90;99.90;;;;;;5036500;28;20528;-75
2024/02/19 05:59:44;;;;;;;8.60;1.83;;;8.90;99.90;;;;;;5035326;28;20057;-75
2024/02/19 06:02:09;;;;;;;9.38;1.70;;;8.90;99.90;;;;;;5037279;28;20522;-76
2024/02/19 06:04:35;;;;;;;6.50;1.58;;;8.90;99.90;;;;;;5033772;28;20095;-75
2024/02/19 06:07:01;;;;;;;14.07;1.60;;;8.90;99.90;;;;;;5037984;28;20034;-79
2024/02/19 06:09:27;;;;;;;8.93;1.42;;;9.00;99.90;;;;;;5041252;28;20064;-76
2024/02/19 06:11:53;;;;;;;4.88;1.35;;;9.00;99.90;;;;;;5033736;28;20079;-78
2024/02/19 06:14:19;;;;;;;16.42;1.75;;;9.00;99.90;;;;;;5031940;28;20128;-75
2024/02/19 06:16:44;;;;;;;9.85;2.22;;;9.00;99.90;;;;;;5034626;28;20112;-75
2024/02/19 06:19:10;;;;;;;10.02;1.80;;;9.00;99.90;;;;;;5034843;28;20029;-79
2024/02/19 06:21:35;;;;;;;6.93;1.63;;;9.00;99.90;;;;;;5035161;28;20043;-77
2024/02/19 06:24:01;;;;;;;11.25;1.48;;;9.00;99.90;;;;;;5034821;28;20044;-75
2024/02/19 06:26:26;;;;;;;6.18;1.92;;;9.00;99.90;;;;;;5029501;28;20037;-74
2024/02/19 06:28:52;;;;;;;10.07;1.98;;;9.00;99.90;;;;;;5032801;28;20480;-76
2024/02/19 06:31:18;;;;;;;13.20;1.20;;;9.00;99.90;;;;;;5034411;28;20033;-76
2024/02/19 06:33:43;;;;;;;7.45;1.17;;;9.00;99.90;;;;;;5034246;28;20048;-78
2024/02/19 06:36:09;;;;;;;12.52;1.98;;;8.90;99.90;;;;;;5040990;28;20057;-74
2024/02/19 06:38:34;;;;;;;9.25;1.95;;;9.00;99.90;;;;;;5029717;28;20041;-72
2024/02/19 06:41:00;;;;;;;13.27;2.20;;;8.90;99.90;;;;;;5038430;28;20098;-78
2024/02/19 06:43:25;;;;;;;13.25;2.10;;;9.00;99.90;;;;;;5033860;28;20052;-78
2024/02/19 06:45:52;;;;;;;10.07;1.30;;;8.90;99.90;;;;;;5032441;28;20048;-77
2024/02/19 06:48:17;;;;;;;7.90;1.70;;;9.00;99.90;;;;;;5035227;28;20037;-75
2024/02/19 06:50:43;;;;;;;12.13;1.85;;;9.00;99.90;;;;;;5034605;28;20048;-77
2024/02/19 06:53:08;;;;;;;12.98;1.77;;;9.00;99.90;;;;;;5039853;28;20033;-76
2024/02/19 06:55:34;;;;;;;7.82;1.67;;;9.00;99.90;;;;;;5029211;28;20402;-76
2024/02/19 06:57:59;;;;;;;12.40;1.95;;;9.00;99.90;;;;;;5034463;28;20029;-76
2024/02/19 07:00:26;;;;;;;8.60;2.13;;;9.00;99.90;;;;;;5037002;28;20499;-76
2024/02/19 07:02:52;;;;;;;10.18;1.92;;;9.00;99.90;;;;;;5028859;28;20136;-75
2024/02/19 07:05:18;;;;;;;8.02;1.48;;;9.00;99.90;;;;;;5037025;28;20571;-77
2024/02/19 07:07:43;;;;;;;6.22;1.33;;;9.00;99.90;;;;;;5028831;28;20049;-75
2024/02/19 07:10:09;;;;;;;13.38;1.73;;;9.10;99.90;;;;;;5042914;28;20037;-76
2024/02/19 07:12:34;;;;;;;7.72;1.60;;;9.10;99.90;;;;;;5041498;28;20040;-75
2024/02/19 07:15:00;;;;;;;11.73;1.77;;;9.10;99.90;;;;;;5057345;28;20142;-76
2024/02/19 07:17:30;;;;;;;11.98;1.60;;;9.10;99.90;;;;;;5054346;28;20573;-74
2024/02/19 07:19:55;;;;;;;8.23;1.67;;;9.10;99.90;;;;;;5051066;28;20041;-78
2024/02/19 07:22:21;;;;;;;15.18;2.70;;;9.10;99.90;;;;;;5055608;28;20047;-75
2024/02/19 07:24:46;;;;;;;10.48;1.88;;;9.10;99.90;;;;;;5034430;28;20043;-75
2024/02/19 07:27:12;;;;;;;10.00;1.88;;;9.10;99.90;;;;;;5058557;28;20127;-77
2024/02/19 07:29:38;;;;;;;15.57;2.30;;;9.10;99.90;;;;;;5050436;28;20052;-76
2024/02/19 07:32:03;;;;;;;10.85;2.35;;;9.20;99.90;;;;;;5055042;28;20029;-75
2024/02/19 07:34:29;;;;;;;17.20;2.33;;;9.20;99.90;;;;;;5065569;28;20868;-77
2024/02/19 07:36:55;;;;;;;20.63;2.08;;;9.20;99.90;;;;;;5067392;28;20032;-76
2024/02/19 07:39:20;;;;;;;4.93;1.27;;;9.30;99.90;;;;;;5050300;28;20036;-78
2024/02/19 07:41:46;;;;;;;14.80;2.75;;;9.30;99.90;;;;;;5060945;28;20645;-80
2024/02/19 07:44:11;;;;;;;11.27;1.88;;;9.30;99.90;;;;;;5042450;28;20028;-78
2024/02/19 07:46:38;;;;;;;11.80;2.08;;;9.40;99.90;;;;;;5038471;28;20040;-76
2024/02/19 07:49:04;;;;;;;15.57;2.72;;;9.40;99.90;;;;;;5037377;28;20052;-77
2024/02/19 07:51:29;;;;;;;12.32;2.97;;;9.50;99.90;;;;;;5039546;28;20506;-75
2024/02/19 07:53:55;;;;;;;11.27;2.50;;;9.60;99.90;;;;;;5061499;28;20048;-76
2024/02/19 07:56:20;;;;;;;11.23;3.13;;;9.70;99.90;;;;;;5056532;28;20043;-76
2024/02/19 07:58:46;;;;;;;12.98;3.22;;;9.70;99.90;;;;;;5059265;28;20052;-76
2024/02/19 08:01:11;;;;;;;16.08;2.85;;;9.80;99.90;;;;;;5037567;28;20037;-77
2024/02/19 08:03:37;;;;;;;8.57;2.28;;;9.80;99.90;;;;;;5044869;28;20554;-77
2024/02/19 08:06:03;;;;;;;10.98;2.78;;;9.80;99.90;;;;;;5034842;28;20028;-77
2024/02/19 08:08:28;;;;;;;12.90;3.55;;;9.90;99.90;;;;;;5038716;28;20055;-78
2024/02/19 08:10:54;;;;;;;13.63;2.50;;;9.90;99.90;;;;;;5061111;28;20044;-76
2024/02/19 08:13:20;;;;;;;9.50;2.45;;;10.00;99.90;;;;;;5037376;28;20045;-76
2024/02/19 08:15:45;;;;;;;15.82;2.35;;;10.00;99.90;;;;;;5038666;28;20037;-76
2024/02/19 08:18:11;;;;;;;12.48;2.55;;;10.00;99.90;;;;;;5057830;28;20449;-74
2024/02/19 08:20:37;;;;;;;12.88;2.35;;;9.90;99.90;;;;;;5045042;28;20452;-77
2024/02/19 08:23:03;;;;;;;11.23;2.00;;;9.90;99.90;;;;;;5058418;28;20037;-77
2024/02/19 08:25:29;;;;;;;15.18;3.67;;;9.90;99.90;;;;;;5060657;28;20039;-78
2024/02/19 08:27:54;;;;;;;10.38;2.83;;;9.90;99.90;;;;;;5060493;28;20052;-76
2024/02/19 08:30:20;;;;;;;10.75;2.72;;;9.90;99.90;;;;;;5058595;28;20083;-76
2024/02/19 08:32:46;;;;;;;11.40;2.53;;;9.90;99.90;;;;;;5040009;28;20047;-76
2024/02/19 08:35:11;;;;;;;14.65;3.60;;;9.80;99.90;;;;;;5058540;28;20056;-73
2024/02/19 08:37:37;;;;;;;15.52;2.60;;;9.80;99.90;;;;;;5038584;28;20056;-77
2024/02/19 08:40:05;;;;;;;6.97;2.08;;;9.90;99.90;;;;;;5056458;28;20040;-79
2024/02/19 08:42:30;;;;;;;6.95;2.22;;;9.90;99.90;;;;;;5051008;28;20039;-77
2024/02/19 08:44:56;;;;;;;8.93;2.83;;;9.90;99.90;;;;;;5051196;28;20033;-75
2024/02/19 08:47:22;;;;;;;11.40;2.50;;;9.90;99.90;;;;;;5052066;28;20032;-75
2024/02/19 08:49:47;;;;;;;10.60;2.67;;;10.00;99.90;;;;;;5062237;28;20037;-76
2024/02/19 08:52:14;;;;;;;13.70;2.75;;;10.10;99.90;;;;;;5046042;28;20055;-77
2024/02/19 08:54:39;;;;;;;9.93;2.70;;;10.20;99.90;;;;;;5049840;28;20788;-79
2024/02/19 08:57:05;;;;;;;8.77;2.72;;;10.10;99.90;;;;;;5070142;28;20056;-75
2024/02/19 08:59:31;;;;;;;6.80;2.00;;;10.10;99.90;;;;;;5050497;28;20033;-82
2024/02/19 09:01:57;;;;;;;11.32;2.22;;;10.10;99.90;;;;;;5065077;28;20037;-75
2024/02/19 09:04:23;;;;;;;14.07;2.53;;;10.10;99.90;;;;;;5068731;28;20036;-76
2024/02/19 09:06:49;;;;;;;11.48;2.03;;;10.20;99.90;;;;;;5069362;28;20032;-77
2024/02/19 09:09:15;;;;;;;9.27;2.63;;;10.20;99.90;;;;;;5055722;28;20101;-76
2024/02/19 09:11:41;;;;;;;14.00;3.60;;;10.20;99.90;;;;;;5075019;28;20387;-75
2024/02/19 09:14:06;;;;;;;8.73;2.38;;;10.30;99.90;;;;;;5069992;28;20024;-75
2024/02/19 09:16:32;;;;;;;6.47;2.20;;;10.30;99.90;;;;;;5065491;28;20039;-77
2024/02/19 09:18:58;;;;;;;16.98;2.38;;;10.40;99.90;;;;;;5051340;28;20107;-77
2024/02/19 09:21:23;;;;;;;18.73;1.98;;;10.40;99.90;;;;;;5045774;28;20064;-75
2024/02/19 09:23:49;;;;;;;11.07;2.25;;;10.40;99.90;;;;;;5045619;28;20025;-76
2024/02/19 09:26:14;;;;;;;10.25;2.53;;;10.50;99.90;;;;;;5046870;28;20036;-78
2024/02/19 09:28:40;;;;;;;11.80;2.33;;;10.50;99.90;;;;;;5047986;28;20033;-77
2024/02/19 09:31:06;;;;;;;10.52;1.52;;;10.60;99.90;;;;;;5067531;28;20024;-75
2024/02/19 09:33:32;;;;;;;7.82;1.38;;;10.60;99.90;;;;;;5052085;28;20079;-78
2024/02/19 09:35:57;;;;;;;5.38;2.08;;;10.60;99.90;;;;;;5061793;28;20020;-73
2024/02/19 09:38:23;;;;;;;4.95;1.55;;;10.70;99.90;;;;;;5065977;28;20060;-79
2024/02/19 09:40:49;;;;;;;7.68;1.50;;;10.60;99.90;;;;;;5061188;28;20056;-75
2024/02/19 09:43:24;;;;;;;13.65;2.00;;;10.60;99.90;;;;;;5064575;28;20048;-74
2024/02/19 09:45:49;;;;;;;7.28;2.30;;;10.60;99.90;;;;;;5047917;28;20056;-76
2024/02/19 09:48:17;;;;;;;10.70;1.70;;;10.60;99.90;;;;;;5064694;28;20063;-75
2024/02/19 09:50:47;;;;;;;9.20;1.40;;;10.60;99.90;;;;;;5046960;28;20059;-76
2024/02/19 09:53:22;;;;;;;8.60;1.20;;;10.60;99.90;;;;;;5049959;28;20058;-75
2024/02/19 09:55:47;;;;;;;8.27;1.00;;;10.60;99.90;;;;;;5058299;28;20071;-75
2024/02/19 09:58:14;;;;;;;10.73;1.38;;;10.60;99.90;;;;;;5048673;28;20056;-79
2024/02/19 10:00:40;;;;;;;10.02;1.08;;;10.50;99.90;;;;;;5045766;28;20032;-75
2024/02/19 10:03:07;;;;;;;7.03;2.28;;;10.50;99.90;;;;;;5045863;28;20575;-74
2024/02/19 10:05:33;;;;;;;7.53;1.65;;;10.50;99.90;;;;;;5062451;28;20144;-76
2024/02/19 10:08:03;;;;;;;9.48;1.30;;;10.60;99.90;;;;;;5061257;28;20090;-76
2024/02/19 10:10:32;;;;;;;5.03;1.20;;;10.60;99.90;;;;;;5064736;28;20032;-74
2024/02/19 10:12:58;;;;;;;7.45;1.73;;;10.60;99.90;;;;;;5065543;28;20099;-75
2024/02/19 10:15:23;;;;;;;9.15;1.33;;;10.60;99.90;;;;;;5066179;28;20048;-76
2024/02/19 10:17:49;;;;;;;8.38;1.30;;;10.60;99.90;;;;;;5060580;28;20036;-75
2024/02/19 10:20:14;;;;;;;6.85;1.48;;;10.70;99.90;;;;;;5060937;28;20112;-77
2024/02/19 10:22:40;;;;;;;15.43;1.48;;;10.70;99.90;;;;;;5045610;28;20489;-73
2024/02/19 10:25:07;;;;;;;4.80;1.60;;;10.80;99.90;;;;;;5063834;28;20032;-80
2024/02/19 10:27:34;;;;;;;9.85;1.58;;;10.80;99.90;;;;;;5064981;28;20040;-75
2024/02/19 10:30:00;;;;;;;5.50;1.15;;;10.90;99.90;;;;;;5062828;28;20842;-75
2024/02/19 10:32:26;;;;;;;8.57;1.48;;;10.90;99.90;;;;;;5045389;28;20060;-76
2024/02/19 10:34:52;;;;;;;9.60;1.73;;;10.90;99.90;;;;;;5067708;28;20036;-76
2024/02/19 10:37:18;;;;;;;6.93;1.17;;;11.00;99.90;;;;;;5055485;28;20045;-76
2024/02/19 10:39:44;;;;;;;7.03;2.05;;;11.00;99.90;;;;;;5065722;28;20133;-75
2024/02/19 10:42:10;;;;;;;8.40;1.60;;;11.10;99.90;;;;;;5048546;28;20040;-74
2024/02/19 10:44:36;;;;;;;7.68;1.40;;;11.10;99.90;;;;;;5060556;28;20025;-74
2024/02/19 10:47:03;;;;;;;7.65;1.10;;;11.20;99.90;;;;;;5063212;28;20405;-75
2024/02/19 10:49:29;;;;;;;10.52;1.75;;;11.30;99.90;;;;;;5064738;28;20036;-75
2024/02/19 10:51:56;;;;;;;10.73;1.27;;;11.30;99.90;;;;;;5061452;28;20044;-75
2024/02/19 10:54:21;;;;;;;11.32;1.92;;;11.40;99.90;;;;;;5059238;28;20040;-74
2024/02/19 10:56:47;;;;;;;5.07;1.40;;;11.40;99.90;;;;;;5059758;28;20048;-74
2024/02/19 10:59:14;;;;;;;16.60;2.42;;;11.50;99.90;;;;;;5063398;28;20484;-76
2024/02/19 11:01:48;;;;;;;8.23;1.67;;;11.60;99.90;;;;;;5042531;28;20494;-74
2024/02/19 11:04:16;;;;;;;4.47;0.90;;;11.70;99.90;;;;;;5066028;28;20098;-74
2024/02/19 11:06:51;;;;;;;11.70;1.55;;;11.70;99.90;;;;;;5064072;28;20078;-74
2024/02/19 11:09:16;;;;;;;4.00;1.38;;;11.70;99.90;;;;;;5060892;28;20037;-72
2024/02/19 11:11:52;;;;;;;5.65;1.48;;;11.80;99.90;;;;;;5061010;28;20028;-75
2024/02/19 11:14:22;;;;;;;5.30;1.02;;;11.80;99.90;;;;;;5042403;28;20109;-73
2024/02/19 11:16:49;;;;;;;11.00;1.57;;;11.80;99.90;;;;;;5059978;28;20940;-74
2024/02/19 11:19:15;;;;;;;3.53;1.10;;;11.80;99.90;;;;;;5065559;28;20107;-75
2024/02/19 11:21:44;;;;;;;4.65;1.45;;;11.70;99.90;;;;;;5070494;28;20029;-73
2024/02/19 11:24:09;;;;;;;9.35;1.83;;;11.70;99.90;;;;;;5073340;28;21437;-73
2024/02/19 11:26:40;;;;;;;9.35;1.65;;;11.70;99.90;;;;;;5049402;28;20131;-72
2024/02/19 11:29:11;;;;;;;6.78;1.13;;;11.60;99.90;;;;;;5064901;28;20032;-73
2024/02/19 11:31:39;;;;;;;7.57;1.42;;;11.60;99.90;;;;;;5066796;28;20032;-75
2024/02/19 11:34:05;;;;;;;8.63;1.48;;;11.60;99.90;;;;;;5047155;28;20039;-76
2024/02/19 11:36:30;;;;;;;6.22;0.85;;;11.60;99.90;;;;;;5047790;28;20027;-72
2024/02/19 11:38:56;;;;;;;4.03;1.35;;;11.60;99.90;;;;;;5065071;28;20041;-74
2024/02/19 11:41:23;;;;;;;8.55;1.15;;;11.70;99.90;;;;;;5063929;28;20087;-73
2024/02/19 11:43:49;;;;;;;7.55;1.73;;;11.60;99.90;;;;;;5054735;28;20123;-74
2024/02/19 11:46:15;;;;;;;15.38;2.03;;;11.50;99.90;;;;;;5062347;28;20116;-73
2024/02/19 11:48:41;;;;;;;12.30;1.73;;;11.40;99.90;;;;;;5069742;28;20052;-73
2024/02/19 11:51:06;;;;;;;6.93;1.15;;;11.30;99.90;;;;;;5048714;28;20029;-74
2024/02/19 11:53:32;;;;;;;7.47;2.35;;;11.40;99.90;;;;;;5061805;28;20036;-74
2024/02/19 11:56:01;;;;;;;5.13;1.50;;;11.40;99.90;;;;;;5068375;28;20028;-75
2024/02/19 11:58:31;;;;;;;12.30;2.35;;;11.40;99.90;;;;;;5069617;28;20021;-73
2024/02/19 12:00:56;;;;;;;9.83;1.90;;;11.40;99.90;;;;;;5058286;28;20032;-72
2024/02/19 12:03:26;;;;;;;12.90;1.52;;;11.50;99.90;;;;;;5049258;28;20528;-74
2024/02/19 12:05:53;;;;;;;9.63;2.33;;;11.50;99.90;;;;;;5046908;28;20037;-76
2024/02/19 12:08:18;;;;;;;8.05;1.55;;;11.50;99.90;;;;;;5073129;28;20413;-73
2024/02/19 12:10:44;;;;;;;9.27;1.83;;;11.60;99.90;;;;;;5055022;28;20047;-73
2024/02/19 12:13:10;;;;;;;6.47;1.33;;;11.70;99.90;;;;;;5045745;28;20044;-74
2024/02/19 12:15:35;;;;;;;9.43;2.33;;;11.80;99.90;;;;;;5041627;28;20050;-73
2024/02/19 12:18:01;;;;;;;5.75;1.50;;;11.70;99.90;;;;;;5044807;28;20048;-74
2024/02/19 12:20:26;;;;;;;7.53;1.75;;;11.80;99.90;;;;;;5067849;28;20438;-75
2024/02/19 12:22:52;;;;;;;5.25;1.63;;;11.90;99.90;;;;;;5060316;28;20079;-74
2024/02/19 12:25:17;;;;;;;9.35;1.70;;;11.90;99.90;;;;;;5066230;28;20033;-73
2024/02/19 12:27:43;;;;;;;8.48;1.60;;;11.80;99.90;;;;;;5048637;28;20041;-75
2024/02/19 12:30:09;;;;;;;10.23;2.20;;;11.80;99.90;;;;;;5061855;28;20079;-74
2024/02/19 12:32:35;;;;;;;8.90;2.40;;;11.70;99.90;;;;;;5046676;28;20036;-70
2024/02/19 12:35:02;;;;;;;5.72;2.15;;;11.70;99.90;;;;;;5066905;28;20048;-76
2024/02/19 12:37:29;;;;;;;12.75;2.13;;;11.60;99.90;;;;;;5067906;28;20452;-74
2024/02/19 12:39:54;;;;;;;8.23;2.30;;;11.50;99.90;;;;;;5063019;28;20040;-75
2024/02/19 12:42:24;;;;;;;9.73;3.47;;;11.60;99.90;;;;;;5043010;28;20051;-74